Erie, Minnesota
Current Conditions -  °F | °C
As of 4:35 AM on Monday 22 Dec 2014 (Local Time) from KTVF Reporting Station
Overcast Overcast  
Wind Chill: 25°   Ceiling: 2300
Heat Index: 34°   Visibility: 6mi
Dew Point: 34°   Wind: 12mph
Humidity: 100%   Direction: 110°ESE
Pressure: 29.55"   Gusts: NA
Location:  48.0638°N, 95.6851°W
Report Text: KTVF 221035Z AUTO 11010KT 6SM FEW018 OVC023 01/01 A2955 RMK AO1
Loading
Personal Weather Stations






























Interactive Weather Map New forecast layout! Learn more

10-Day Weather Forecast

Advertisements
Track Severe Weather on mobile